Time;durP1;ratioP1;P1;durP2;ratioP2;P2;SDS_P1;SDS_P2;PMS_P1;PMS_P2;Temp;Humidity;BMP_temperature;BMP_pressure;BME280_temperature;BME280_humidity;BME280_pressure;Samples;Min_cycle;Max_cycle;Signal;HPM_P1;HPM_P2
2023/12/13 00:00:20;;;;;;;10.60;6.40;;;;;;;;;;5049183;28;20285;-77
2023/12/13 00:02:47;;;;;;;7.20;5.73;;;;;;;;;;5049546;28;20198;-77
2023/12/13 00:05:14;;;;;;;7.53;5.73;;;;;;;;;;5048934;28;20198;-77
2023/12/13 00:07:41;;;;;;;6.83;5.37;;;;;;;;;;5049100;28;20206;-77
2023/12/13 00:10:08;;;;;;;8.23;6.23;;;;;;;;;;5048989;28;20199;-76
2023/12/13 00:12:35;;;;;;;7.20;5.67;;;;;;;;;;5049119;28;20727;-77
2023/12/13 00:15:02;;;;;;;6.77;5.93;;;;;;;;;;5049123;28;20229;-77
2023/12/13 00:17:31;;;;;;;6.57;5.40;;;;;;;;;;5049195;28;20210;-77
2023/12/13 00:19:57;;;;;;;7.10;4.67;;;;;;;;;;5048900;28;20214;-77
2023/12/13 00:22:24;;;;;;;6.93;5.20;;;;;;;;;;5049288;28;20590;-77
2023/12/13 00:24:51;;;;;;;5.90;4.97;;;;;;;;;;5049284;28;20229;-77
2023/12/13 00:27:20;;;;;;;7.60;5.93;;;;;;;;;;5049211;28;20206;-77
2023/12/13 00:29:46;;;;;;;7.40;5.90;;;;;;;;;;5048846;28;20225;-77
2023/12/13 00:32:13;;;;;;;6.27;4.80;;;;;;;;;;5049053;28;20205;-77
2023/12/13 00:34:41;;;;;;;7.50;5.73;;;;;;;;;;5035220;28;20344;-78
2023/12/13 00:37:08;;;;;;;6.00;5.40;;;;;;;;;;5049036;28;20217;-78
2023/12/13 00:39:35;;;;;;;7.30;5.77;;;;;;;;;;5048585;28;20214;-78
2023/12/13 00:42:02;;;;;;;7.13;5.90;;;;;;;;;;5049086;28;20205;-78
2023/12/13 00:44:29;;;;;;;8.00;5.93;;;;;;;;;;5048220;28;20216;-78
2023/12/13 00:46:56;;;;;;;7.83;5.20;;;;;;;;;;5049013;28;20198;-78
2023/12/13 00:49:23;;;;;;;7.23;5.63;;;;;;;;;;5048941;28;20578;-78
2023/12/13 00:51:51;;;;;;;6.53;5.10;;;;;;;;;;5048518;28;20202;-78
2023/12/13 00:54:18;;;;;;;6.73;5.10;;;;;;;;;;5048845;28;20212;-78
2023/12/13 00:56:45;;;;;;;5.77;5.03;;;;;;;;;;5048281;28;20205;-78
2023/12/13 00:59:11;;;;;;;4.83;4.33;;;;;;;;;;5048180;28;20205;-78
2023/12/13 01:01:43;;;;;;;6.37;5.63;;;;;;;;;;5048129;28;20198;-78
2023/12/13 01:04:10;;;;;;;7.20;5.77;;;;;;;;;;5048627;28;20230;-78
2023/12/13 01:06:37;;;;;;;7.37;6.30;;;;;;;;;;5046556;28;20217;-78
2023/12/13 01:09:08;;;;;;;6.73;5.17;;;;;;;;;;5035350;28;20202;-78
2023/12/13 01:11:35;;;;;;;6.17;4.83;;;;;;;;;;5038432;28;20282;-79
2023/12/13 01:14:04;;;;;;;6.80;5.50;;;;;;;;;;5036692;28;20211;-78
2023/12/13 01:16:31;;;;;;;10.23;6.77;;;;;;;;;;5038522;28;20611;-78
2023/12/13 01:18:58;;;;;;;11.73;7.07;;;;;;;;;;5044080;28;20213;-78
2023/12/13 01:21:24;;;;;;;6.03;5.20;;;;;;;;;;5048201;28;20217;-78
2023/12/13 01:23:51;;;;;;;6.13;5.03;;;;;;;;;;5048320;28;20691;-78
2023/12/13 01:26:19;;;;;;;9.00;7.13;;;;;;;;;;5048097;28;20206;-78
2023/12/13 01:28:46;;;;;;;7.43;5.87;;;;;;;;;;5021548;28;20198;-78
2023/12/13 01:31:13;;;;;;;8.80;5.80;;;;;;;;;;5047795;28;20213;-79
2023/12/13 01:33:41;;;;;;;18.57;16.53;;;;;;;;;;5048110;28;20201;-78
2023/12/13 01:36:08;;;;;;;8.27;6.93;;;;;;;;;;5048193;28;20230;-79
2023/12/13 01:38:35;;;;;;;8.50;6.37;;;;;;;;;;5047542;28;20202;-78
2023/12/13 01:41:02;;;;;;;6.07;5.47;;;;;;;;;;5048174;28;20321;-78
2023/12/13 01:43:30;;;;;;;5.37;4.80;;;;;;;;;;5047683;28;20284;-78
2023/12/13 01:45:58;;;;;;;9.27;5.33;;;;;;;;;;5047952;28;20210;-78
2023/12/13 01:48:26;;;;;;;6.97;5.27;;;;;;;;;;5047546;28;20197;-79
2023/12/13 01:50:54;;;;;;;6.97;5.47;;;;;;;;;;5046917;28;20293;-79
2023/12/13 01:53:22;;;;;;;5.60;5.00;;;;;;;;;;5047322;28;20202;-79
2023/12/13 01:55:49;;;;;;;5.80;4.37;;;;;;;;;;5047029;28;20309;-79
2023/12/13 01:58:16;;;;;;;5.93;4.93;;;;;;;;;;5048260;28;20213;-79
2023/12/13 02:00:44;;;;;;;6.63;5.63;;;;;;;;;;5047613;28;20676;-79
2023/12/13 02:03:12;;;;;;;25.67;19.10;;;;;;;;;;5047646;28;20683;-79
2023/12/13 02:05:39;;;;;;;12.27;9.17;;;;;;;;;;5041141;28;20685;-79
2023/12/13 02:08:07;;;;;;;6.63;6.00;;;;;;;;;;5041306;28;20209;-79
2023/12/13 02:10:34;;;;;;;16.07;14.37;;;;;;;;;;5047325;28;20668;-79
2023/12/13 02:13:01;;;;;;;7.00;5.57;;;;;;;;;;5047641;28;20257;-79
2023/12/13 02:15:28;;;;;;;5.77;5.17;;;;;;;;;;5047750;28;20226;-79
2023/12/13 02:17:56;;;;;;;5.53;4.57;;;;;;;;;;5047361;28;20209;-79
2023/12/13 02:20:23;;;;;;;5.17;4.67;;;;;;;;;;5047613;28;20202;-79
2023/12/13 02:22:51;;;;;;;6.33;4.37;;;;;;;;;;5047432;28;20205;-79
2023/12/13 02:25:21;;;;;;;5.27;3.67;;;;;;;;;;5047457;28;20311;-79
2023/12/13 02:27:47;;;;;;;5.57;3.77;;;;;;;;;;5046654;28;20633;-78
2023/12/13 02:30:14;;;;;;;3.80;3.50;;;;;;;;;;5047700;28;20210;-79
2023/12/13 02:32:41;;;;;;;5.03;4.03;;;;;;;;;;5034401;28;20210;-79
2023/12/13 02:35:08;;;;;;;5.23;3.90;;;;;;;;;;5047239;28;20281;-79
2023/12/13 02:37:35;;;;;;;6.47;4.00;;;;;;;;;;5046906;28;20198;-79
2023/12/13 02:40:06;;;;;;;7.90;4.40;;;;;;;;;;5047666;28;20214;-79
2023/12/13 02:42:33;;;;;;;6.50;5.60;;;;;;;;;;5047106;28;20194;-79
2023/12/13 02:45:00;;;;;;;6.00;5.43;;;;;;;;;;5047056;28;20641;-79
2023/12/13 02:47:27;;;;;;;7.40;6.17;;;;;;;;;;5046612;28;20202;-79
2023/12/13 02:49:53;;;;;;;6.30;5.33;;;;;;;;;;5047840;28;20202;-79
2023/12/13 02:52:20;;;;;;;6.17;4.90;;;;;;;;;;5046791;28;20210;-79
2023/12/13 02:54:47;;;;;;;9.23;6.77;;;;;;;;;;5047232;28;20202;-79
2023/12/13 02:57:15;;;;;;;9.00;6.53;;;;;;;;;;5046227;28;20206;-79
2023/12/13 02:59:42;;;;;;;5.80;5.07;;;;;;;;;;5046897;28;20206;-79
2023/12/13 03:02:09;;;;;;;7.23;5.60;;;;;;;;;;5046838;28;20198;-79
2023/12/13 03:04:35;;;;;;;9.17;7.27;;;;;;;;;;5049752;28;20206;-79
2023/12/13 03:07:04;;;;;;;9.23;6.53;;;;;;;;;;5050222;28;20206;-79
2023/12/13 03:09:31;;;;;;;12.10;8.70;;;;;;;;;;5050620;28;20209;-79
2023/12/13 03:11:57;;;;;;;6.83;6.13;;;;;;;;;;5044240;28;20234;-79
2023/12/13 03:14:26;;;;;;;7.47;5.40;;;;;;;;;;5042810;28;20711;-79
2023/12/13 03:16:52;;;;;;;5.83;4.97;;;;;;;;;;5050034;28;20233;-80
2023/12/13 03:19:19;;;;;;;8.03;6.87;;;;;;;;;;5050194;28;20210;-79
2023/12/13 03:21:46;;;;;;;5.77;4.87;;;;;;;;;;5049882;28;20199;-79
2023/12/13 03:24:13;;;;;;;4.73;4.27;;;;;;;;;;5050276;28;20210;-80
2023/12/13 03:26:40;;;;;;;7.23;5.50;;;;;;;;;;5050110;28;20285;-79
2023/12/13 03:29:08;;;;;;;6.13;5.43;;;;;;;;;;5049169;28;20565;-79
2023/12/13 03:31:36;;;;;;;6.20;5.50;;;;;;;;;;5049000;28;20593;-79
2023/12/13 03:34:06;;;;;;;5.00;4.50;;;;;;;;;;5048927;28;20206;-79
2023/12/13 03:36:33;;;;;;;5.83;4.93;;;;;;;;;;5049050;28;20462;-78
2023/12/13 03:38:59;;;;;;;9.10;6.67;;;;;;;;;;5049021;28;20202;-79
2023/12/13 03:41:26;;;;;;;9.07;6.33;;;;;;;;;;5049385;28;20257;-79
2023/12/13 03:43:53;;;;;;;9.10;6.53;;;;;;;;;;5048277;28;20202;-79
2023/12/13 03:46:21;;;;;;;6.93;6.03;;;;;;;;;;5038130;28;20202;-80
2023/12/13 03:48:49;;;;;;;7.40;5.77;;;;;;;;;;5049092;28;20255;-79
2023/12/13 03:51:16;;;;;;;8.53;6.47;;;;;;;;;;5050016;28;20199;-79
2023/12/13 03:53:43;;;;;;;9.30;7.27;;;;;;;;;;5049205;28;20202;-79
2023/12/13 03:56:10;;;;;;;28.13;23.37;;;;;;;;;;5049409;28;20226;-79
2023/12/13 03:58:38;;;;;;;22.93;18.67;;;;;;;;;;5049025;28;20212;-79
2023/12/13 04:01:08;;;;;;;10.00;8.97;;;;;;;;;;5049747;28;20194;-79
2023/12/13 04:03:35;;;;;;;8.63;7.20;;;;;;;;;;5049125;28;20194;-79
2023/12/13 04:06:06;;;;;;;6.30;5.67;;;;;;;;;;5049386;28;20198;-79
2023/12/13 04:08:33;;;;;;;7.17;5.23;;;;;;;;;;5049832;28;20198;-79
2023/12/13 04:11:00;;;;;;;7.13;4.27;;;;;;;;;;5049621;28;20219;-80
2023/12/13 04:13:26;;;;;;;6.40;5.10;;;;;;;;;;5048756;28;20625;-79
2023/12/13 04:16:08;;;;;;;9.83;7.17;;;;;;;;;;5089842;27;1344171;-78
2023/12/13 04:18:36;;;;;;;8.37;6.63;;;;;;;;;;5116138;28;20211;-78
2023/12/13 04:21:06;;;;;;;7.53;6.50;;;;;;;;;;5127936;28;20194;-78
2023/12/13 04:23:33;;;;;;;8.53;6.43;;;;;;;;;;5116393;28;20195;-78
2023/12/13 04:26:01;;;;;;;16.10;12.30;;;;;;;;;;5128914;28;20195;-78
2023/12/13 04:28:28;;;;;;;15.97;11.30;;;;;;;;;;5128185;28;20201;-78
2023/12/13 04:30:54;;;;;;;9.73;7.27;;;;;;;;;;5128763;28;20206;-81
2023/12/13 04:33:23;;;;;;;33.27;21.43;;;;;;;;;;5128491;28;20224;-81
2023/12/13 04:35:57;;;;;;;49.33;30.97;;;;;;;;;;5126417;28;20218;-80
2023/12/13 04:38:24;;;;;;;103.70;56.20;;;;;;;;;;5117774;28;20205;-80
2023/12/13 04:40:51;;;;;;;61.07;40.23;;;;;;;;;;5111886;28;20196;-80
2023/12/13 04:43:19;;;;;;;84.47;47.80;;;;;;;;;;5106780;28;20291;-81
2023/12/13 04:45:46;;;;;;;107.50;66.50;;;;;;;;;;5114623;28;20195;-81
2023/12/13 04:48:12;;;;;;;84.50;49.23;;;;;;;;;;5127698;28;20199;-79
2023/12/13 04:50:41;;;;;;;123.07;65.27;;;;;;;;;;5115428;28;20325;-79
2023/12/13 04:53:07;;;;;;;100.23;60.43;;;;;;;;;;5121209;28;20211;-79
2023/12/13 04:55:34;;;;;;;52.37;32.20;;;;;;;;;;5121283;28;20218;-80
2023/12/13 04:58:02;;;;;;;26.60;18.63;;;;;;;;;;5113809;28;20196;-77
2023/12/13 05:00:28;;;;;;;22.03;15.37;;;;;;;;;;5123864;28;20199;-78
2023/12/13 05:02:55;;;;;;;19.63;14.90;;;;;;;;;;5119070;28;20206;-78
2023/12/13 05:05:22;;;;;;;41.30;27.63;;;;;;;;;;5127935;28;20290;-78
2023/12/13 05:07:51;;;;;;;49.97;33.13;;;;;;;;;;5107566;28;20196;-78
2023/12/13 05:10:17;;;;;;;59.77;37.63;;;;;;;;;;5108460;28;20625;-78
2023/12/13 05:12:44;;;;;;;57.03;37.37;;;;;;;;;;5120010;28;20670;-77
2023/12/13 05:15:11;;;;;;;47.23;29.93;;;;;;;;;;5108500;28;20606;-77
2023/12/13 05:17:38;;;;;;;41.33;25.90;;;;;;;;;;5127854;28;20441;-77
2023/12/13 05:20:10;;;;;;;28.20;18.57;;;;;;;;;;5112489;28;20211;-77
2023/12/13 05:22:36;;;;;;;22.93;15.53;;;;;;;;;;5116386;28;20589;-77
2023/12/13 05:25:08;;;;;;;19.70;14.43;;;;;;;;;;5113942;28;20208;-77
2023/12/13 05:27:34;;;;;;;16.90;11.87;;;;;;;;;;5113220;28;20203;-77
2023/12/13 05:30:01;;;;;;;14.00;9.27;;;;;;;;;;5111285;28;20241;-77
2023/12/13 05:32:28;;;;;;;25.40;15.93;;;;;;;;;;5103325;28;20204;-78
2023/12/13 05:34:55;;;;;;;18.40;12.50;;;;;;;;;;5096827;28;20228;-78
2023/12/13 05:37:22;;;;;;;23.57;15.23;;;;;;;;;;5093853;28;20205;-77
2023/12/13 05:39:48;;;;;;;16.20;12.80;;;;;;;;;;5110345;28;20213;-78
2023/12/13 05:42:17;;;;;;;16.93;11.23;;;;;;;;;;5113806;28;20678;-77
2023/12/13 05:44:43;;;;;;;15.90;12.63;;;;;;;;;;5095809;28;20230;-78
2023/12/13 05:47:10;;;;;;;15.17;11.80;;;;;;;;;;5106611;28;20210;-78
2023/12/13 05:49:37;;;;;;;14.40;11.00;;;;;;;;;;5102127;28;20210;-78
2023/12/13 05:52:08;;;;;;;9.93;8.93;;;;;;;;;;5098305;28;20204;-78
2023/12/13 05:54:34;;;;;;;11.40;8.97;;;;;;;;;;5103168;28;20216;-78
2023/12/13 05:57:01;;;;;;;97.77;35.80;;;;;;;;;;5106122;28;20211;-78
2023/12/13 05:59:31;;;;;;;40.97;19.87;;;;;;;;;;5093168;28;20583;-78
2023/12/13 06:01:57;;;;;;;9.67;8.23;;;;;;;;;;5095955;28;20765;-78
2023/12/13 06:04:24;;;;;;;6.07;5.33;;;;;;;;;;5113147;28;20203;-78
2023/12/13 06:06:51;;;;;;;6.90;4.90;;;;;;;;;;5099195;28;20711;-79
2023/12/13 06:09:21;;;;;;;7.77;5.17;;;;;;;;;;5103548;28;20208;-78
2023/12/13 06:11:48;;;;;;;11.30;8.13;;;;;;;;;;5093088;28;20200;-78
2023/12/13 06:14:15;;;;;;;11.40;9.73;;;;;;;;;;5103793;28;20973;-78
2023/12/13 06:16:43;;;;;;;12.43;10.87;;;;;;;;;;5112804;28;20203;-78
2023/12/13 06:19:10;;;;;;;15.03;11.97;;;;;;;;;;5101800;28;20222;-77
2023/12/13 06:21:36;;;;;;;14.87;10.03;;;;;;;;;;5097122;28;20628;-78
2023/12/13 06:24:06;;;;;;;20.30;15.97;;;;;;;;;;5100961;28;20231;-78
2023/12/13 06:26:33;;;;;;;11.37;10.27;;;;;;;;;;5098173;28;20641;-78
2023/12/13 06:29:00;;;;;;;6.57;5.90;;;;;;;;;;5113180;28;20565;-78
2023/12/13 06:31:27;;;;;;;58.57;29.63;;;;;;;;;;5093092;28;20204;-77
2023/12/13 06:33:56;;;;;;;50.63;32.03;;;;;;;;;;5092869;28;20579;-78
2023/12/13 06:36:23;;;;;;;15.87;9.80;;;;;;;;;;5092449;28;20224;-78
2023/12/13 06:38:50;;;;;;;9.87;7.23;;;;;;;;;;5105333;28;20200;-78
2023/12/13 06:41:16;;;;;;;10.40;8.17;;;;;;;;;;5092145;28;20667;-77
2023/12/13 06:43:43;;;;;;;13.27;8.90;;;;;;;;;;5092465;28;20604;-78
2023/12/13 06:46:10;;;;;;;9.90;7.40;;;;;;;;;;5112156;28;20674;-77
2023/12/13 06:48:37;;;;;;;8.40;7.07;;;;;;;;;;5098990;28;20301;-78
2023/12/13 06:51:06;;;;;;;9.77;8.03;;;;;;;;;;5112326;28;20195;-77
2023/12/13 06:53:33;;;;;;;18.53;13.57;;;;;;;;;;5111474;28;20205;-78
2023/12/13 06:56:00;;;;;;;36.20;23.73;;;;;;;;;;5099640;28;20227;-77
2023/12/13 06:58:27;;;;;;;29.33;18.13;;;;;;;;;;5097646;28;20206;-77
2023/12/13 07:00:54;;;;;;;25.07;16.27;;;;;;;;;;5092093;28;20196;-77
2023/12/13 07:03:20;;;;;;;18.77;14.73;;;;;;;;;;5091769;28;20208;-77
2023/12/13 07:05:47;;;;;;;12.93;10.30;;;;;;;;;;5099819;28;20230;-77
2023/12/13 07:08:15;;;;;;;12.20;8.97;;;;;;;;;;5112116;28;20210;-78
2023/12/13 07:10:43;;;;;;;9.07;6.90;;;;;;;;;;5103651;28;20200;-77
2023/12/13 07:13:09;;;;;;;21.97;16.17;;;;;;;;;;5104794;28;20199;-78
2023/12/13 07:15:37;;;;;;;23.83;17.43;;;;;;;;;;5100157;28;20267;-78
2023/12/13 07:18:04;;;;;;;29.10;19.57;;;;;;;;;;5109667;28;20645;-78
2023/12/13 07:20:31;;;;;;;18.97;15.27;;;;;;;;;;5101214;28;20660;-78
2023/12/13 07:22:58;;;;;;;28.50;19.00;;;;;;;;;;5111426;28;20227;-78
2023/12/13 07:25:26;;;;;;;20.90;15.77;;;;;;;;;;5111633;28;20206;-78
2023/12/13 07:27:53;;;;;;;28.77;21.73;;;;;;;;;;5095210;28;20296;-78
2023/12/13 07:30:20;;;;;;;34.33;25.07;;;;;;;;;;5091767;28;20200;-78
2023/12/13 07:32:47;;;;;;;31.13;21.30;;;;;;;;;;5104699;28;20200;-77
2023/12/13 07:35:14;;;;;;;25.77;18.10;;;;;;;;;;5091350;28;20231;-78
2023/12/13 07:37:40;;;;;;;14.83;12.07;;;;;;;;;;5104506;28;20204;-77
2023/12/13 07:40:08;;;;;;;11.83;7.97;;;;;;;;;;5091321;28;20207;-77
2023/12/13 07:42:37;;;;;;;13.03;9.17;;;;;;;;;;5104075;28;20197;-76
2023/12/13 07:45:04;;;;;;;10.53;8.20;;;;;;;;;;5091325;28;20211;-77
2023/12/13 07:47:31;;;;;;;9.57;8.10;;;;;;;;;;5104521;28;20689;-78
2023/12/13 07:49:58;;;;;;;32.50;24.70;;;;;;;;;;5091287;28;20206;-78
2023/12/13 07:52:24;;;;;;;18.93;15.37;;;;;;;;;;5090778;28;20200;-78
2023/12/13 07:54:52;;;;;;;15.20;13.23;;;;;;;;;;5102702;28;20200;-76
2023/12/13 07:57:22;;;;;;;14.37;11.60;;;;;;;;;;5111072;28;20230;-78
2023/12/13 07:59:50;;;;;;;9.83;8.67;;;;;;;;;;5098789;28;20200;-77
2023/12/13 08:02:20;;;;;;;14.50;10.47;;;;;;;;;;5090632;28;20207;-77
2023/12/13 08:04:47;;;;;;;12.43;10.60;;;;;;;;;;5090997;28;20200;-77
2023/12/13 08:07:13;;;;;;;13.43;10.87;;;;;;;;;;5097350;28;20317;-78
2023/12/13 08:09:40;;;;;;;12.00;9.47;;;;;;;;;;5097823;28;20639;-78
2023/12/13 08:12:07;;;;;;;16.80;11.73;;;;;;;;;;5110787;28;20643;-78
2023/12/13 08:14:34;;;;;;;15.37;10.50;;;;;;;;;;5097316;28;20228;-78
2023/12/13 08:17:04;;;;;;;10.77;7.87;;;;;;;;;;5103668;28;20220;-77
2023/12/13 08:19:31;;;;;;;8.03;6.60;;;;;;;;;;5091230;28;20642;-77
2023/12/13 08:21:58;;;;;;;8.33;6.33;;;;;;;;;;5090477;28;20273;-79
2023/12/13 08:24:24;;;;;;;12.57;8.27;;;;;;;;;;5090736;28;20200;-77
2023/12/13 08:26:51;;;;;;;12.57;10.33;;;;;;;;;;5099017;28;20203;-77
2023/12/13 08:29:18;;;;;;;13.90;9.83;;;;;;;;;;5109207;28;20203;-77
2023/12/13 08:31:46;;;;;;;12.57;10.03;;;;;;;;;;5090673;28;20193;-77
2023/12/13 08:34:15;;;;;;;9.83;6.87;;;;;;;;;;5104208;28;20246;-77
2023/12/13 08:36:42;;;;;;;12.60;9.70;;;;;;;;;;5099922;28;20241;-77
2023/12/13 08:39:09;;;;;;;20.90;16.40;;;;;;;;;;5111069;28;20211;-77
2023/12/13 08:41:36;;;;;;;18.23;12.67;;;;;;;;;;5100509;28;20211;-77
2023/12/13 08:44:03;;;;;;;11.33;9.07;;;;;;;;;;5090420;28;20200;-77
2023/12/13 08:46:30;;;;;;;15.73;14.07;;;;;;;;;;5090425;28;20207;-77
2023/12/13 08:48:57;;;;;;;12.07;9.53;;;;;;;;;;5103961;28;20215;-77
2023/12/13 08:51:26;;;;;;;12.00;9.70;;;;;;;;;;5099987;28;20199;-78
2023/12/13 08:53:54;;;;;;;11.60;9.87;;;;;;;;;;5097396;28;20201;-77
2023/12/13 08:56:21;;;;;;;11.97;10.20;;;;;;;;;;5100533;28;20232;-77
2023/12/13 08:58:47;;;;;;;11.03;9.63;;;;;;;;;;5090357;28;20197;-77
2023/12/13 09:01:14;;;;;;;9.80;8.53;;;;;;;;;;5101509;28;20207;-77
2023/12/13 09:03:41;;;;;;;8.83;7.60;;;;;;;;;;5114375;28;20203;-78
2023/12/13 09:06:24;;;;;;;9.77;7.37;;;;;;;;;;5114368;28;20200;-77
2023/12/13 09:08:56;;;;;;;19.10;9.30;;;;;;;;;;5082874;28;20612;-77
2023/12/13 09:11:36;;;;;;;12.90;9.73;;;;;;;;;;5098034;28;20210;-77
2023/12/13 09:14:03;;;;;;;9.30;7.40;;;;;;;;;;5094329;28;20204;-77
2023/12/13 09:16:30;;;;;;;8.97;6.80;;;;;;;;;;5093541;28;20231;-78
2023/12/13 09:18:57;;;;;;;8.10;6.47;;;;;;;;;;5094243;28;20204;-78
2023/12/13 09:21:24;;;;;;;7.50;6.13;;;;;;;;;;5093507;28;20208;-77
2023/12/13 09:23:52;;;;;;;8.43;6.90;;;;;;;;;;5093800;28;20650;-77
2023/12/13 09:26:19;;;;;;;9.27;7.03;;;;;;;;;;5093624;28;20201;-77
2023/12/13 09:28:45;;;;;;;48.57;23.27;;;;;;;;;;5103795;28;20203;-77
2023/12/13 09:31:12;;;;;;;31.13;18.40;;;;;;;;;;5099834;28;20200;-76
2023/12/13 09:33:39;;;;;;;25.70;16.57;;;;;;;;;;5103568;28;20585;-76
2023/12/13 09:36:07;;;;;;;23.47;16.27;;;;;;;;;;5111188;28;20247;-77
2023/12/13 09:38:33;;;;;;;13.43;7.90;;;;;;;;;;5113725;28;20203;-77
2023/12/13 09:41:02;;;;;;;19.80;13.90;;;;;;;;;;5109799;28;20208;-77
2023/12/13 09:43:28;;;;;;;13.87;9.63;;;;;;;;;;5104957;28;20203;-77
2023/12/13 09:45:55;;;;;;;12.73;9.47;;;;;;;;;;5095205;28;20196;-77
2023/12/13 09:48:23;;;;;;;14.13;10.70;;;;;;;;;;5093107;28;20204;-77
2023/12/13 09:50:53;;;;;;;11.43;8.40;;;;;;;;;;5098737;28;20219;-77
2023/12/13 09:53:21;;;;;;;7.90;6.87;;;;;;;;;;5100855;28;20256;-77
2023/12/13 09:55:48;;;;;;;10.10;7.70;;;;;;;;;;5093165;28;20212;-77
2023/12/13 09:58:16;;;;;;;10.37;7.40;;;;;;;;;;5106515;28;20207;-78
2023/12/13 10:00:43;;;;;;;12.80;7.77;;;;;;;;;;5113472;28;20191;-77
2023/12/13 10:03:10;;;;;;;17.87;10.60;;;;;;;;;;5112647;28;20206;-80
2023/12/13 10:05:39;;;;;;;11.20;9.33;;;;;;;;;;5093383;28;20207;-77
2023/12/13 10:08:06;;;;;;;13.03;8.00;;;;;;;;;;5106308;28;20227;-78
2023/12/13 10:10:34;;;;;;;12.30;7.67;;;;;;;;;;5100501;28;20209;-77
2023/12/13 10:13:09;;;;;;;10.60;7.73;;;;;;;;;;5097658;28;20204;-77
2023/12/13 10:15:38;;;;;;;12.43;9.70;;;;;;;;;;5093190;28;20612;-77
2023/12/13 10:18:05;;;;;;;13.77;10.10;;;;;;;;;;5109381;28;20195;-77
2023/12/13 10:20:33;;;;;;;9.77;8.47;;;;;;;;;;5102775;28;20624;-77
2023/12/13 10:23:00;;;;;;;15.53;10.80;;;;;;;;;;5096274;28;20258;-77
2023/12/13 10:25:27;;;;;;;17.50;12.20;;;;;;;;;;5102322;28;20204;-77
2023/12/13 10:27:54;;;;;;;12.57;10.07;;;;;;;;;;5092075;28;20207;-77
2023/12/13 10:30:21;;;;;;;10.90;8.73;;;;;;;;;;5092946;28;20200;-77
2023/12/13 10:32:50;;;;;;;12.47;8.80;;;;;;;;;;5096813;28;20677;-76
2023/12/13 10:35:19;;;;;;;10.03;8.17;;;;;;;;;;5100976;28;20208;-77
2023/12/13 10:37:48;;;;;;;23.67;19.53;;;;;;;;;;5111001;28;20230;-77
2023/12/13 10:40:17;;;;;;;14.57;10.47;;;;;;;;;;5112364;28;20203;-77
2023/12/13 10:42:46;;;;;;;9.50;7.20;;;;;;;;;;5092456;28;20199;-77
2023/12/13 10:45:13;;;;;;;8.43;6.70;;;;;;;;;;5092509;28;20201;-77
2023/12/13 10:47:43;;;;;;;11.37;9.80;;;;;;;;;;5097934;28;20196;-77
2023/12/13 10:50:12;;;;;;;11.67;9.30;;;;;;;;;;5099666;28;20200;-77
2023/12/13 10:52:41;;;;;;;12.10;8.33;;;;;;;;;;5098533;28;20223;-77
2023/12/13 10:55:08;;;;;;;15.27;12.23;;;;;;;;;;5098531;28;20204;-77
2023/12/13 10:57:36;;;;;;;18.10;13.90;;;;;;;;;;5098805;28;20219;-77
2023/12/13 11:00:06;;;;;;;17.73;12.80;;;;;;;;;;5112109;28;20200;-77
2023/12/13 11:02:38;;;;;;;12.87;7.80;;;;;;;;;;5112337;28;20600;-77
2023/12/13 11:05:09;;;;;;;6.70;5.47;;;;;;;;;;5112274;28;20195;-77
2023/12/13 11:07:45;;;;;;;8.60;7.70;;;;;;;;;;5102438;28;20200;-77
2023/12/13 11:10:13;;;;;;;9.23;8.23;;;;;;;;;;5091886;28;20227;-77
2023/12/13 11:12:49;;;;;;;9.20;8.30;;;;;;;;;;5091992;28;20201;-77
2023/12/13 11:15:19;;;;;;;13.60;11.63;;;;;;;;;;5105212;28;20576;-77
2023/12/13 11:17:48;;;;;;;9.50;7.30;;;;;;;;;;5104625;28;20713;-78
2023/12/13 11:20:15;;;;;;;24.47;17.67;;;;;;;;;;5112031;28;20742;-78
2023/12/13 11:22:47;;;;;;;18.93;15.77;;;;;;;;;;5098477;28;20200;-77
2023/12/13 11:25:14;;;;;;;10.83;9.60;;;;;;;;;;5111113;28;20203;-77
2023/12/13 11:27:57;;;;;;;15.67;14.17;;;;;;;;;;5096636;28;20201;-77
2023/12/13 11:30:24;;;;;;;9.60;8.60;;;;;;;;;;5099915;28;20200;-77
2023/12/13 11:32:51;;;;;;;10.80;9.10;;;;;;;;;;5097474;28;20202;-77
2023/12/13 11:35:19;;;;;;;15.80;9.67;;;;;;;;;;5100992;28;20776;-77
2023/12/13 11:37:50;;;;;;;34.43;19.80;;;;;;;;;;5104718;28;20228;-77
2023/12/13 11:40:17;;;;;;;18.90;11.87;;;;;;;;;;5102688;28;20206;-78
2023/12/13 11:42:44;;;;;;;12.60;10.03;;;;;;;;;;5106617;28;20206;-77
2023/12/13 11:45:11;;;;;;;8.77;7.73;;;;;;;;;;5091308;28;20196;-78
2023/12/13 11:47:39;;;;;;;7.93;6.87;;;;;;;;;;5110122;28;20206;-77
2023/12/13 11:50:08;;;;;;;8.53;7.60;;;;;;;;;;5111298;28;20203;-77
2023/12/13 11:52:36;;;;;;;18.80;13.47;;;;;;;;;;5091295;28;20231;-77
2023/12/13 11:55:10;;;;;;;15.80;12.30;;;;;;;;;;5091183;28;20204;-78
2023/12/13 11:57:38;;;;;;;14.37;11.27;;;;;;;;;;5098620;28;20230;-77
2023/12/13 12:00:06;;;;;;;9.17;6.73;;;;;;;;;;5110335;28;20200;-77
2023/12/13 12:02:33;;;;;;;6.40;5.80;;;;;;;;;;5099096;28;20653;-77
2023/12/13 12:05:03;;;;;;;9.60;8.10;;;;;;;;;;5097377;28;20698;-78
2023/12/13 12:07:29;;;;;;;10.83;7.87;;;;;;;;;;5110780;28;20665;-78
2023/12/13 12:09:57;;;;;;;12.10;8.60;;;;;;;;;;5111412;28;20238;-77
2023/12/13 12:12:26;;;;;;;8.90;7.23;;;;;;;;;;5111083;28;20202;-77
2023/12/13 12:14:53;;;;;;;10.30;6.73;;;;;;;;;;5110593;28;20334;-77
2023/12/13 12:17:20;;;;;;;10.23;8.17;;;;;;;;;;5100993;28;20232;-77
2023/12/13 12:19:47;;;;;;;10.60;7.80;;;;;;;;;;5107355;28;20640;-77
2023/12/13 12:22:14;;;;;;;9.33;7.50;;;;;;;;;;5110810;28;20195;-77
2023/12/13 12:24:41;;;;;;;8.67;7.10;;;;;;;;;;5097125;28;20206;-77
2023/12/13 12:27:08;;;;;;;9.77;8.40;;;;;;;;;;5110881;28;20696;-77
2023/12/13 12:29:36;;;;;;;8.23;6.70;;;;;;;;;;5107414;28;20220;-77
2023/12/13 12:32:08;;;;;;;7.87;7.07;;;;;;;;;;5090817;28;20590;-77
2023/12/13 12:34:35;;;;;;;13.37;8.63;;;;;;;;;;5106997;28;20628;-77
2023/12/13 12:37:04;;;;;;;15.47;12.43;;;;;;;;;;5112952;28;20218;-81
2023/12/13 12:39:31;;;;;;;13.10;9.47;;;;;;;;;;5104381;28;20214;-78
2023/12/13 12:41:58;;;;;;;13.80;11.47;;;;;;;;;;5114687;28;20227;-79
2023/12/13 12:44:25;;;;;;;12.87;10.13;;;;;;;;;;5114917;28;20191;-78
2023/12/13 12:46:53;;;;;;;17.47;10.97;;;;;;;;;;5114800;28;20207;-78
2023/12/13 12:49:20;;;;;;;15.30;12.57;;;;;;;;;;5114753;28;20628;-78
2023/12/13 12:51:47;;;;;;;20.13;13.57;;;;;;;;;;5115092;28;20207;-78
2023/12/13 12:54:14;;;;;;;22.90;15.77;;;;;;;;;;5107554;28;20197;-78
2023/12/13 12:56:41;;;;;;;23.07;16.47;;;;;;;;;;5107838;28;20203;-79
2023/12/13 12:59:12;;;;;;;21.80;16.27;;;;;;;;;;5114808;28;20211;-78
2023/12/13 13:01:39;;;;;;;21.33;15.63;;;;;;;;;;5101186;28;20219;-78
2023/12/13 13:04:10;;;;;;;27.40;17.50;;;;;;;;;;5106369;28;20709;-78
2023/12/13 13:06:37;;;;;;;145.60;66.70;;;;;;;;;;5107421;28;20298;-78
2023/12/13 13:09:06;;;;;;;30.20;20.80;;;;;;;;;;5100310;28;20622;-78
2023/12/13 13:11:33;;;;;;;29.13;25.27;;;;;;;;;;5109771;28;20199;-78
2023/12/13 13:14:00;;;;;;;23.80;17.50;;;;;;;;;;5100655;28;20624;-78
2023/12/13 13:16:27;;;;;;;20.20;15.50;;;;;;;;;;5114421;28;20203;-78
2023/12/13 13:18:54;;;;;;;17.57;14.27;;;;;;;;;;5114167;28;20223;-78
2023/12/13 13:21:22;;;;;;;24.07;14.63;;;;;;;;;;5104522;28;20210;-78
2023/12/13 13:23:49;;;;;;;17.93;13.47;;;;;;;;;;5113454;28;20200;-78
2023/12/13 13:26:15;;;;;;;21.27;13.73;;;;;;;;;;5102719;28;20208;-78
2023/12/13 13:28:42;;;;;;;20.57;15.73;;;;;;;;;;5099294;28;20192;-78
2023/12/13 13:31:11;;;;;;;20.93;15.17;;;;;;;;;;5101485;28;20200;-78
2023/12/13 13:33:38;;;;;;;19.03;14.07;;;;;;;;;;5106930;28;20742;-78
2023/12/13 13:36:06;;;;;;;22.47;14.23;;;;;;;;;;5106434;28;20195;-78
2023/12/13 13:38:34;;;;;;;21.47;14.30;;;;;;;;;;5107277;28;20220;-79
2023/12/13 13:41:01;;;;;;;18.07;12.73;;;;;;;;;;5093725;28;20203;-79
2023/12/13 13:43:28;;;;;;;16.57;12.90;;;;;;;;;;5100673;28;20263;-78
2023/12/13 13:45:55;;;;;;;15.33;12.20;;;;;;;;;;5114043;28;20608;-78
2023/12/13 13:48:22;;;;;;;23.03;14.60;;;;;;;;;;5101054;28;20287;-78
2023/12/13 13:50:49;;;;;;;21.20;14.07;;;;;;;;;;5093424;28;20204;-78
2023/12/13 13:53:16;;;;;;;14.97;10.53;;;;;;;;;;5104178;28;20625;-78
2023/12/13 13:55:45;;;;;;;21.67;15.20;;;;;;;;;;5099725;28;20199;-78
2023/12/13 13:58:11;;;;;;;15.17;12.07;;;;;;;;;;5113442;28;20261;-78
2023/12/13 14:00:39;;;;;;;23.10;13.50;;;;;;;;;;5106294;28;20702;-78
2023/12/13 14:03:06;;;;;;;20.63;14.33;;;;;;;;;;5112628;28;20203;-78
2023/12/13 14:05:35;;;;;;;20.60;13.53;;;;;;;;;;5106956;28;20677;-79
2023/12/13 14:08:02;;;;;;;20.13;15.70;;;;;;;;;;5095024;28;20697;-79
2023/12/13 14:10:29;;;;;;;27.07;19.03;;;;;;;;;;5099409;28;20704;-78
2023/12/13 14:12:57;;;;;;;25.43;18.27;;;;;;;;;;5105826;28;20670;-78
2023/12/13 14:15:24;;;;;;;32.17;21.27;;;;;;;;;;5102745;28;20235;-78
2023/12/13 14:17:51;;;;;;;37.43;22.53;;;;;;;;;;5097230;28;20236;-78
2023/12/13 14:20:18;;;;;;;35.07;24.57;;;;;;;;;;5106666;28;20204;-78
2023/12/13 14:22:44;;;;;;;42.00;24.10;;;;;;;;;;5112850;28;20204;-78
2023/12/13 14:25:11;;;;;;;31.77;19.30;;;;;;;;;;5112940;28;20199;-78
2023/12/13 14:27:38;;;;;;;28.60;19.00;;;;;;;;;;5105026;28;20207;-78
2023/12/13 14:30:09;;;;;;;30.00;20.67;;;;;;;;;;5092505;28;20203;-78